Latest Weather Observations for Maria Island

IDT60801

Issued at 7:35 pm EDT Wednesday 26 November 2014 (issued every 30 minutes, with the page automatically refreshed every 10 minutes)

About weather observations | Map of weather stations | Latest weather observations for TAS | Other Formats
Station Details ID: 092124 Name: MARIA ISLAND (POINT LESUEUR) Lat: -42.66 Lon: 148.02 Height: 28.0 m
Data from the previous 72 hours. | See also: Recent months at Maria Island
Date/Time
EDT
Temp
°C
App
Temp
°C
Dew
Point
Rel
Hum
%
Delta-T
°C
Wind Press
QNH
hPa
Press
MSL
hPa
Rain
since 9 am
mm
Dir
 
Spd
km/h
Gust
km/h
Spd
kts
Gust
kts
26/07:30pm 12.9 5.5 8.2 73 2.3 SSW 37 44 20 24 1017.4 1017.4 0.4
26/07:00pm 13.5 6.5 8.4 71 2.5 SSW 35 41 19 22 1017.2 1017.2 0.4
26/06:30pm 13.6 6.2 8.2 70 2.7 SSW 37 43 20 23 1016.6 1016.6 0.4
26/06:00pm 14.5 7.3 7.8 64 3.3 SSW 35 43 19 23 1016.1 1016.1 0.4
26/05:30pm 14.4 6.8 7.7 64 3.3 SSW 37 44 20 24 1016.1 1016.1 0.4
26/05:00pm 14.8 7.2 7.6 62 3.6 SSW 37 48 20 26 1015.7 1015.7 0.4
26/04:30pm 14.4 6.6 8.4 67 3.0 SSW 39 44 21 24 1015.6 1015.6 0.4
26/04:00pm 13.9 6.0 7.9 67 3.0 SSW 39 46 21 25 1015.4 1015.4 0.4
26/03:30pm 14.1 5.6 8.7 70 2.7 SSW 43 52 23 28 1015.5 1015.5 0.4
26/03:00pm 13.7 4.9 8.1 69 2.8 SSW 44 54 24 29 1015.0 1015.0 0.4
26/02:30pm 14.2 6.2 9.0 71 2.6 SSW 41 48 22 26 1014.9 1014.9 0.4
26/02:00pm 12.1 2.2 8.4 78 1.8 SSW 50 54 27 29 1014.7 1014.7 0.2
26/01:30pm 14.2 7.6 7.9 66 3.1 S 32 37 17 20 1014.7 1014.7 0.0
26/01:00pm 14.8 8.3 6.4 57 4.1 WSW 30 33 16 18 1014.5 1014.5 0.0
26/12:30pm 13.9 6.9 6.7 62 3.5 S 33 41 18 22 1014.3 1014.3 0.0
26/12:00pm 13.6 5.6 7.4 66 3.0 SSW 39 44 21 24 1014.1 1014.1 0.0
26/11:53am 14.0 6.8 9.0 72 2.5 SSW 37 43 20 23 1014.1 1014.1 0.0
26/11:30am 14.5 9.5 6.6 59 3.8 WSW 22 33 12 18 1014.1 1014.1 0.0
26/11:00am 12.7 7.0 6.5 66 3.0 SW 26 39 14 21 1014.0 1014.0 0.0
26/10:30am 14.0 6.7 4.3 52 4.5 WSW 32 43 17 23 1013.2 1013.2 0.0
26/10:00am 14.3 7.5 4.9 53 4.4 WSW 30 41 16 22 1012.8 1012.8 0.0
26/09:49am 14.0 6.4 3.8 50 4.6 WSW 33 54 18 29 1012.7 1012.7 0.0
26/09:30am 14.0 6.5 4.3 52 4.5 W 33 44 18 24 1012.4 1012.4 0.0
26/09:00am 13.7 5.3 3.8 51 4.5 W 37 57 20 31 1012.0 1012.0 0.0
26/08:54am 14.4 7.0 5.0 53 4.4 W 33 57 18 31 1012.0 1012.0 0.0
26/08:30am 14.2 8.0 4.2 51 4.6 W 26 41 14 22 1011.8 1011.8 0.0
26/08:00am 13.7 7.4 3.5 50 4.6 W 26 39 14 21 1011.5 1011.5 0.0
26/07:30am 13.5 8.3 3.6 51 4.5 WSW 20 24 11 13 1011.1 1011.1 0.0
26/07:00am 13.2 5.8 4.9 57 3.8 W 33 43 18 23 1010.7 1010.7 0.0
26/06:30am 12.0 7.6 7.5 74 2.2 SSW 20 26 11 14 1010.4 1010.4 0.0
26/06:00am 12.0 9.0 7.7 75 2.1 WSW 13 22 7 12 1010.0 1010.0 0.0
26/05:30am 11.3 9.0 9.0 86 1.1 S 11 15 6 8 1009.9 1009.9 0.0
26/05:00am 11.3 9.4 9.0 86 1.1 SSW 9 13 5 7 1009.4 1009.4 0.0
26/04:30am 11.8 7.6 7.5 75 2.1 NNW 19 24 10 13 1009.1 1009.1 0.0
26/04:00am 12.5 7.8 7.6 72 2.4 NW 22 26 12 14 1008.5 1008.5 0.0
26/03:30am 12.7 6.5 6.3 65 3.0 N 28 35 15 19 1008.3 1008.3 0.0
26/03:00am 12.9 5.9 6.7 66 3.0 N 33 41 18 22 1008.1 1008.1 0.0
26/02:30am 13.0 5.5 6.4 64 3.1 N 35 41 19 22 1008.4 1008.4 0.0
26/02:00am 13.0 5.8 6.1 63 3.3 N 33 37 18 20 1008.5 1008.5 0.0
26/01:30am 13.1 6.4 5.8 61 3.4 N 30 37 16 20 1008.6 1008.6 0.0
26/01:00am 12.8 6.9 5.7 62 3.3 NNW 26 32 14 17 1009.4 1009.4 0.0
26/12:30am 12.8 6.3 4.8 58 3.7 NNW 28 39 15 21 1009.8 1009.8 0.0
26/12:00am 12.7 6.7 5.4 61 3.4 NNW 26 33 14 18 1010.3 1010.3 0.0
 
Date/Time
EDT
Temp
°C
App
Temp
°C
Dew
Point
Rel
Hum
%
Delta-T
°C
Wind Press
QNH
hPa
Press
MSL
hPa
Rain
since 9 am
mm
Dir
 
Spd
km/h
Gust
km/h
Spd
kts
Gust
kts
25/11:30pm 12.6 7.0 5.5 62 3.3 NW 24 37 13 20 1010.7 1010.7 0.0
25/11:00pm 12.4 6.3 4.9 60 3.5 NW 26 39 14 21 1011.1 1011.1 0.0
25/10:30pm 12.3 7.4 4.3 58 3.6 NW 19 30 10 16 1011.2 1011.2 0.0
25/10:00pm 12.6 8.5 4.3 57 3.8 NNW 15 20 8 11 1011.5 1011.5 0.0
25/09:30pm 13.0 8.0 4.7 57 3.8 NW 20 28 11 15 1011.3 1011.3 0.0
25/09:00pm 13.2 8.9 5.1 58 3.8 WNW 17 26 9 14 1010.9 1010.9 0.0
25/08:30pm 13.4 8.5 4.0 53 4.3 W 19 28 10 15 1010.8 1010.8 0.0
25/08:00pm 13.7 7.6 4.6 54 4.2 W 26 32 14 17 1010.6 1010.6 0.0
25/07:30pm 14.5 8.2 3.9 49 4.9 W 26 41 14 22 1010.0 1010.0 0.0
25/07:00pm 15.0 9.8 3.8 47 5.1 W 20 30 11 16 1009.6 1009.6 0.0
25/06:30pm 15.7 8.4 4.7 48 5.2 W 32 48 17 26 1008.9 1008.9 0.0
25/06:24pm 15.7 8.1 4.1 46 5.4 W 33 54 18 29 1008.9 1008.9 0.0
25/06:00pm 15.8 6.9 5.1 49 5.1 W 41 57 22 31 1008.6 1008.6 0.0
25/05:32pm 16.6 10.2 5.3 47 5.4 W 28 50 15 27 1008.3 1008.3 0.0
25/05:30pm 16.5 11.2 6.6 52 4.9 WSW 24 37 13 20 1008.4 1008.4 0.0
25/05:00pm 15.6 8.8 7.1 57 4.2 W 32 46 17 25 1007.9 1007.9 0.0
25/04:30pm 18.6 12.8 6.4 45 6.1 W 26 43 14 23 1007.5 1007.5 0.0
25/04:00pm 17.0 12.2 7.4 53 4.8 WSW 22 32 12 17 1007.6 1007.6 0.0
25/03:30pm 15.8 10.9 7.1 56 4.3 WSW 22 35 12 19 1007.2 1007.2 0.0
25/03:00pm 16.5 10.3 6.1 50 5.1 W 28 41 15 22 1006.9 1006.8 0.0
25/02:30pm 16.7 9.7 6.2 50 5.1 WSW 32 46 17 25 1006.5 1006.4 0.0
25/02:00pm 18.1 9.4 3.9 39 6.7 W 39 59 21 32 1005.9 1005.8 0.0
25/01:40pm 18.4 10.5 4.6 40 6.6 W 35 57 19 31 1006.1 1006.0 0.0
25/01:30pm 18.3 10.1 4.8 41 6.5 WSW 37 46 20 25 1006.2 1006.1 0.0
25/01:02pm 17.5 9.3 4.8 43 6.1 WSW 37 56 20 30 1006.1 1006.0 0.0
25/01:00pm 17.3 8.6 4.3 42 6.2 WSW 39 48 21 26 1006.1 1006.0 0.0
25/12:51pm 17.6 8.3 4.9 43 6.1 W 43 63 23 34 1005.7 1005.6 0.0
25/12:30pm 17.6 8.5 5.9 46 5.7 W 43 59 23 32 1005.7 1005.6 0.0
25/12:02pm 17.1 9.3 4.8 44 5.9 W 35 54 19 29 1005.6 1005.5 0.0
25/12:00pm 17.9 10.2 5.5 44 6.0 W 35 46 19 25 1005.5 1005.4 0.0
25/11:36am 17.1 10.7 5.4 46 5.6 WSW 28 56 15 30 1005.4 1005.3 0.0
25/11:30am 17.1 10.5 6.0 48 5.4 WSW 30 44 16 24 1005.6 1005.5 0.0
25/11:00am 16.6 9.4 4.9 46 5.6 W 32 43 17 23 1005.3 1005.2 0.0
25/10:30am 16.6 9.3 4.3 44 5.8 W 32 44 17 24 1005.2 1005.1 0.0
25/10:05am 16.1 9.7 5.4 49 5.1 WSW 28 48 15 26 1005.0 1004.9 0.0
25/10:00am 16.0 8.9 5.3 49 5.1 WSW 32 46 17 25 1005.1 1005.0 0.0
25/09:48am 15.5 9.0 4.6 48 5.1 WSW 28 57 15 31 1004.9 1004.8 0.0
25/09:30am 15.1 8.7 5.0 51 4.8 WSW 28 44 15 24 1004.7 1004.6 0.0
25/09:00am 15.1 7.6 4.5 49 5.0 W 33 59 18 32 1004.2 1004.1 1.0
25/08:40am 14.8 8.1 5.6 54 4.4 WSW 30 52 16 28 1003.8 1003.7 1.0
25/08:30am 14.4 9.4 3.8 49 4.8 WSW 19 32 10 17 1003.8 1003.7 1.0
25/08:09am 14.2 7.4 5.0 54 4.3 W 30 50 16 27 1003.4 1003.3 1.0
25/08:00am 13.9 7.8 5.0 55 4.2 WSW 26 43 14 23 1003.3 1003.2 1.0
25/07:36am 13.9 5.7 5.0 55 4.1 WSW 37 57 20 31 1003.0 1002.9 1.0
25/07:34am 13.6 4.1 5.0 56 4.0 WSW 44 57 24 31 1002.6 1002.5 1.0
25/07:30am 13.8 9.0 5.4 57 3.9 W 20 32 11 17 1003.0 1002.9 1.0
25/07:00am 13.2 7.2 5.1 58 3.8 W 26 39 14 21 1002.5 1002.4 1.0
25/06:58am 13.2 6.8 5.1 58 3.8 W 28 39 15 21 1002.4 1002.3 1.0
25/06:30am 12.6 9.5 5.5 62 3.3 WNW 11 20 6 11 1002.2 1002.1 1.0
25/06:00am 11.9 9.1 5.3 64 3.1 NW 9 19 5 10 1001.8 1001.7 1.0
25/05:30am 11.5 7.2 5.2 65 2.9 NW 17 22 9 12 1001.2 1001.1 1.0
25/05:00am 11.6 4.8 5.3 65 2.9 NW 30 44 16 24 1000.4 1000.3 1.0
25/04:30am 11.7 6.8 4.9 63 3.1 WNW 20 28 11 15 1000.9 1000.8 1.0
25/04:00am 11.4 6.4 4.6 63 3.1 WNW 20 30 11 16 1001.0 1000.9 1.0
25/03:30am 11.8 7.3 4.1 59 3.5 NW 17 30 9 16 1001.0 1000.9 1.0
25/03:00am 11.7 5.1 4.4 61 3.3 NW 28 44 15 24 1000.9 1000.8 1.0
25/02:30am 11.7 5.4 4.0 59 3.4 WNW 26 33 14 18 1000.8 1000.7 1.0
25/02:00am 11.9 7.0 3.9 58 3.6 NW 19 28 10 15 1001.4 1001.3 1.0
25/01:30am 11.8 5.2 4.1 59 3.5 NW 28 39 15 21 1001.1 1001.0 1.0
25/01:00am 12.0 4.6 4.2 59 3.5 WNW 32 46 17 25 1001.3 1001.2 1.0
25/12:30am 12.1 5.5 4.3 59 3.5 WNW 28 39 15 21 1001.8 1001.7 1.0
25/12:00am 11.9 7.2 5.3 64 3.1 WNW 19 24 10 13 1002.2 1002.1 1.0
 
Date/Time
EDT
Temp
°C
App
Temp
°C
Dew
Point
Rel
Hum
%
Delta-T
°C
Wind Press
QNH
hPa
Press
MSL
hPa
Rain
since 9 am
mm
Dir
 
Spd
km/h
Gust
km/h
Spd
kts
Gust
kts
24/11:30pm 12.5 7.3 5.4 62 3.3 W 22 35 12 19 1002.4 1002.3 1.0
24/11:00pm 12.8 9.3 7.3 69 2.7 W 15 20 8 11 1002.5 1002.4 1.0
24/10:30pm 13.6 10.3 9.6 77 2.0 WSW 17 22 9 12 1002.5 1002.4 0.8
24/10:00pm 13.9 10.4 10.3 79 1.9 WSW 19 20 10 11 1002.2 1002.1 0.8
24/09:30pm 14.1 11.5 10.7 80 1.8 SW 15 17 8 9 1002.2 1002.1 0.8
24/09:00pm 14.0 11.5 11.0 82 1.6 W 15 19 8 10 1001.9 1001.8 0.8
24/08:30pm 13.9 11.3 11.9 88 1.1 SW 17 20 9 11 1001.8 1001.7 0.8
24/08:00pm 14.8 12.8 11.6 81 1.7 NW 13 15 7 8 1001.4 1001.3 0.8
24/07:30pm 15.0 13.4 11.6 80 1.8 NNW 11 15 6 8 1001.3 1001.2 0.8
24/07:00pm 15.1 11.8 11.5 79 1.9 NW 20 24 11 13 1001.1 1001.0 0.8
24/06:30pm 15.0 10.9 11.6 80 1.8 NNW 24 28 13 15 1001.1 1001.0 0.8
24/06:00pm 14.6 14.0 11.7 83 1.6 NNW 6 7 3 4 1001.8 1001.7 0.8
24/05:30pm 14.5 13.4 11.8 84 1.5 NNW 9 13 5 7 1001.7 1001.6 0.8
24/05:00pm 14.9 13.3 11.5 80 1.8 NW 11 15 6 8 1002.1 1002.0 0.8
24/04:30pm 15.1 12.1 10.7 75 2.3 N 17 19 9 10 1002.0 1001.9 0.8
24/04:00pm 15.5 11.7 9.8 69 3.0 N 20 26 11 14 1002.4 1002.3 0.8
24/03:30pm 15.7 11.2 10.0 69 3.0 N 24 32 13 17 1003.1 1003.0 0.8
24/03:00pm 15.0 8.7 9.8 71 2.7 NNE 33 43 18 23 1003.2 1003.1 0.8
24/02:30pm 14.8 9.6 10.2 74 2.4 N 28 33 15 18 1004.1 1004.0 0.8
24/02:00pm 14.9 11.2 10.1 73 2.5 NNE 20 28 11 15 1004.9 1004.8 0.8
24/01:30pm 15.0 10.8 9.6 70 2.8 N 22 28 12 15 1005.8 1005.7 0.8
24/01:00pm 15.0 11.7 11.0 77 2.1 N 19 24 10 13 1005.9 1005.8 0.8
24/12:30pm 14.9 10.3 9.5 70 2.8 N 24 32 13 17 1006.1 1006.0 0.8
24/12:00pm 14.9 10.7 9.7 71 2.7 N 22 28 12 15 1006.7 1006.6 0.8
24/11:30am 14.6 11.4 10.0 74 2.4 NNE 17 20 9 11 1007.6 1007.6 0.6
24/11:00am 14.4 10.7 9.4 72 2.6 N 19 22 10 12 1008.5 1008.5 0.6
24/10:30am 14.6 11.4 10.0 74 2.4 N 17 20 9 11 1008.8 1008.8 0.2
24/10:00am 15.0 11.4 10.0 72 2.6 N 19 22 10 12 1008.4 1008.4 0.2
24/09:30am 14.4 11.5 9.6 73 2.5 N 15 19 8 10 1008.5 1008.5 0.2
24/09:00am 14.0 10.9 9.0 72 2.5 N 15 20 8 11 1009.1 1009.1 2.2
24/08:30am 13.7 9.8 9.4 75 2.2 N 20 24 11 13 1009.1 1009.1 2.2
24/08:00am 13.6 11.3 10.6 82 1.6 NNW 13 17 7 9 1008.6 1008.6 2.2
24/07:30am 13.1 11.6 10.5 84 1.4 NNW 9 15 5 8 1008.7 1008.7 2.2
24/07:00am 13.4 10.1 9.5 77 2.0 N 17 19 9 10 1008.7 1008.7 2.2
24/06:30am 12.8 10.4 11.4 91 0.7 N 15 17 8 9 1009.0 1009.0 2.2
24/06:00am 12.7 11.8 11.3 91 0.7 NNE 7 9 4 5 1008.6 1008.6 2.2
24/05:30am 12.0 11.0 10.9 93 0.6 NW 7 9 4 5 1009.5 1009.5 2.2
24/05:00am 12.9 12.4 12.0 94 0.5 NNW 6 7 3 4 1009.2 1009.2 2.2
24/04:30am 12.6 11.0 11.5 93 0.6 WNW 11 17 6 9 1009.4 1009.4 2.2
24/04:00am 12.9 11.0 11.8 93 0.6 WNW 13 15 7 8 1009.5 1009.5 2.2
24/03:30am 12.9 12.2 12.0 94 0.5 WNW 7 9 4 5 1009.5 1009.5 2.2
24/03:00am 13.3 12.0 12.5 95 0.4 WNW 11 15 6 8 1009.7 1009.7 2.2
24/02:30am 13.1 11.4 12.3 95 0.4 W 13 15 7 8 1009.8 1009.8 2.2
24/02:00am 13.9 14.1 13.0 94 0.5 NNE 4 4 2 2 1010.1 1010.1 2.2
24/01:30am 14.1 15.0 12.8 92 0.7 CALM 0 4 0 2 1010.7 1010.7 2.2
24/01:00am 14.1 13.9 13.0 93 0.6 SW 6 7 3 4 1011.1 1011.1 2.2
24/12:30am 14.2 15.1 12.9 92 0.7 CALM 0 0 0 0 1011.3 1011.3 2.0
24/12:00am 14.2 13.8 12.9 92 0.7 S 7 9 4 5 1011.5 1011.5 1.4
 
Date/Time
EDT
Temp
°C
App
Temp
°C
Dew
Point
Rel
Hum
%
Delta-T
°C
Wind Press
QNH
hPa
Press
MSL
hPa
Rain
since 9 am
mm
Dir
 
Spd
km/h
Gust
km/h
Spd
kts
Gust
kts
23/11:30pm 14.3 13.2 13.0 92 0.7 SE 11 17 6 9 1011.4 1011.4 0.8
23/11:00pm 14.3 13.6 13.2 93 0.6 ESE 9 15 5 8 1011.9 1011.9 0.8
23/10:30pm 14.2 12.7 13.1 93 0.6 E 13 17 7 9 1011.9 1011.9 0.8
23/10:00pm 14.3 13.8 12.5 89 1.0 ESE 7 11 4 6 1012.0 1012.0 0.8
23/09:30pm 14.7 14.6 12.2 85 1.4 S 4 7 2 4 1012.0 1012.0 0.2
23/09:00pm 15.3 13.7 11.5 78 2.0 E 11 20 6 11 1011.5 1011.5 0.0
23/08:30pm 15.4 13.9 11.8 79 1.9 ENE 11 17 6 9 1011.4 1011.4 0.0
23/08:00pm 15.5 13.9 11.7 78 2.1 E 11 17 6 9 1011.2 1011.2 0.0

Other Formats:

Comma delimited format used in spreadsheet applications
http://www.bom.gov.au/fwo/IDT60801/IDT60801.95988.axf

JavaScript Object Notation format (JSON) in row-major order
http://www.bom.gov.au/fwo/IDT60801/IDT60801.95988.json